sensor_id;sensor_type;location;lat;lon;timestamp;P1;durP1;ratioP1;P2;durP2;ratioP2
21392;SDS011;10857;52.228;21.026;2022-11-04T06:24:15;20.40;;;9.93;;
21392;SDS011;10857;52.228;21.026;2022-11-04T06:26:42;21.13;;;9.93;;
21392;SDS011;10857;52.228;21.026;2022-11-04T06:29:09;19.83;;;10.00;;
21392;SDS011;10857;52.228;21.026;2022-11-04T06:31:35;20.93;;;10.93;;
21392;SDS011;10857;52.228;21.026;2022-11-04T06:34:03;22.30;;;10.47;;
21392;SDS011;10857;52.228;21.026;2022-11-04T06:36:30;21.20;;;9.80;;
21392;SDS011;10857;52.228;21.026;2022-11-04T06:38:57;22.33;;;10.37;;
21392;SDS011;10857;52.228;21.026;2022-11-04T06:41:30;29.87;;;10.57;;
21392;SDS011;10857;52.228;21.026;2022-11-04T06:43:57;20.83;;;10.30;;
21392;SDS011;10857;52.228;21.026;2022-11-04T06:46:27;25.10;;;10.57;;
21392;SDS011;10857;52.228;21.026;2022-11-04T06:49:01;24.37;;;10.70;;
21392;SDS011;10857;52.228;21.026;2022-11-04T06:51:29;20.93;;;10.07;;
21392;SDS011;10857;52.228;21.026;2022-11-04T06:53:56;22.50;;;10.47;;
21392;SDS011;10857;52.228;21.026;2022-11-04T06:56:23;21.63;;;10.10;;
21392;SDS011;10857;52.228;21.026;2022-11-04T06:58:50;22.07;;;9.93;;
21392;SDS011;10857;52.228;21.026;2022-11-04T07:01:19;24.10;;;10.37;;
21392;SDS011;10857;52.228;21.026;2022-11-04T07:03:51;23.33;;;10.13;;
21392;SDS011;10857;52.228;21.026;2022-11-04T07:06:20;25.47;;;10.43;;
21392;SDS011;10857;52.228;21.026;2022-11-04T07:08:48;24.37;;;10.90;;
21392;SDS011;10857;52.228;21.026;2022-11-04T07:11:16;23.40;;;10.00;;
21392;SDS011;10857;52.228;21.026;2022-11-04T07:13:46;22.87;;;9.90;;
21392;SDS011;10857;52.228;21.026;2022-11-04T07:16:14;18.53;;;10.00;;
21392;SDS011;10857;52.228;21.026;2022-11-04T07:18:43;22.00;;;10.90;;
21392;SDS011;10857;52.228;21.026;2022-11-04T07:21:10;23.53;;;10.40;;
21392;SDS011;10857;52.228;21.026;2022-11-04T07:23:37;21.90;;;10.73;;
21392;SDS011;10857;52.228;21.026;2022-11-04T07:26:05;22.67;;;10.97;;
21392;SDS011;10857;52.228;21.026;2022-11-04T07:28:33;20.30;;;10.93;;
21392;SDS011;10857;52.228;21.026;2022-11-04T07:31:01;25.27;;;10.83;;
21392;SDS011;10857;52.228;21.026;2022-11-04T07:33:29;22.23;;;11.10;;
21392;SDS011;10857;52.228;21.026;2022-11-04T07:35:58;23.80;;;10.93;;
21392;SDS011;10857;52.228;21.026;2022-11-04T07:38:29;20.83;;;11.27;;
21392;SDS011;10857;52.228;21.026;2022-11-04T07:40:56;20.93;;;10.60;;
21392;SDS011;10857;52.228;21.026;2022-11-04T07:43:23;21.63;;;10.90;;
21392;SDS011;10857;52.228;21.026;2022-11-04T07:45:58;21.80;;;11.00;;
21392;SDS011;10857;52.228;21.026;2022-11-04T07:48:44;22.03;;;10.73;;
21392;SDS011;10857;52.228;21.026;2022-11-04T07:51:13;21.37;;;10.97;;
21392;SDS011;10857;52.228;21.026;2022-11-04T07:53:42;22.27;;;10.97;;
21392;SDS011;10857;52.228;21.026;2022-11-04T07:56:10;20.40;;;10.50;;
21392;SDS011;10857;52.228;21.026;2022-11-04T07:58:39;21.50;;;11.77;;
21392;SDS011;10857;52.228;21.026;2022-11-04T08:01:08;20.30;;;10.43;;
21392;SDS011;10857;52.228;21.026;2022-11-04T08:03:36;20.50;;;11.17;;
21392;SDS011;10857;52.228;21.026;2022-11-04T08:06:04;23.40;;;11.10;;
21392;SDS011;10857;52.228;21.026;2022-11-04T08:08:32;21.17;;;11.73;;
21392;SDS011;10857;52.228;21.026;2022-11-04T08:11:01;23.30;;;11.17;;
21392;SDS011;10857;52.228;21.026;2022-11-04T08:13:32;24.00;;;11.00;;
21392;SDS011;10857;52.228;21.026;2022-11-04T08:16:01;23.73;;;11.93;;
21392;SDS011;10857;52.228;21.026;2022-11-04T08:18:31;23.17;;;11.63;;
21392;SDS011;10857;52.228;21.026;2022-11-04T08:20:59;20.93;;;11.07;;
21392;SDS011;10857;52.228;21.026;2022-11-04T08:23:27;24.07;;;11.43;;
21392;SDS011;10857;52.228;21.026;2022-11-04T08:25:55;22.03;;;11.37;;
21392;SDS011;10857;52.228;21.026;2022-11-04T08:28:22;25.17;;;11.93;;
21392;SDS011;10857;52.228;21.026;2022-11-04T08:30:50;22.80;;;11.77;;
21392;SDS011;10857;52.228;21.026;2022-11-04T08:33:25;22.40;;;11.30;;
21392;SDS011;10857;52.228;21.026;2022-11-04T08:35:53;27.57;;;12.13;;
21392;SDS011;10857;52.228;21.026;2022-11-04T08:38:24;21.63;;;11.30;;
21392;SDS011;10857;52.228;21.026;2022-11-04T08:40:51;24.03;;;12.07;;
21392;SDS011;10857;52.228;21.026;2022-11-04T08:43:25;21.73;;;12.23;;
21392;SDS011;10857;52.228;21.026;2022-11-04T08:45:52;27.77;;;11.60;;
21392;SDS011;10857;52.228;21.026;2022-11-04T08:48:19;20.63;;;11.33;;
21392;SDS011;10857;52.228;21.026;2022-11-04T08:50:50;23.03;;;11.03;;
21392;SDS011;10857;52.228;21.026;2022-11-04T08:53:19;28.17;;;11.83;;
21392;SDS011;10857;52.228;21.026;2022-11-04T08:55:46;22.27;;;11.57;;
21392;SDS011;10857;52.228;21.026;2022-11-04T08:58:14;22.53;;;10.83;;
21392;SDS011;10857;52.228;21.026;2022-11-04T09:00:41;22.30;;;11.33;;
21392;SDS011;10857;52.228;21.026;2022-11-04T09:03:09;21.30;;;11.37;;
21392;SDS011;10857;52.228;21.026;2022-11-04T09:05:37;19.57;;;10.73;;
21392;SDS011;10857;52.228;21.026;2022-11-04T09:08:13;19.83;;;11.13;;
21392;SDS011;10857;52.228;21.026;2022-11-04T09:10:42;21.77;;;11.30;;
21392;SDS011;10857;52.228;21.026;2022-11-04T09:13:10;23.03;;;11.20;;
21392;SDS011;10857;52.228;21.026;2022-11-04T09:15:37;20.70;;;11.43;;
21392;SDS011;10857;52.228;21.026;2022-11-04T09:18:05;22.00;;;11.17;;
21392;SDS011;10857;52.228;21.026;2022-11-04T09:20:32;18.70;;;9.93;;
21392;SDS011;10857;52.228;21.026;2022-11-04T09:23:00;20.33;;;11.57;;
21392;SDS011;10857;52.228;21.026;2022-11-04T09:25:27;26.73;;;11.23;;
21392;SDS011;10857;52.228;21.026;2022-11-04T09:27:54;23.93;;;11.00;;
21392;SDS011;10857;52.228;21.026;2022-11-04T09:30:20;21.50;;;11.00;;
21392;SDS011;10857;52.228;21.026;2022-11-04T09:32:47;19.33;;;10.93;;
21392;SDS011;10857;52.228;21.026;2022-11-04T09:35:18;27.27;;;11.90;;
21392;SDS011;10857;52.228;21.026;2022-11-04T09:37:45;21.77;;;10.87;;
21392;SDS011;10857;52.228;21.026;2022-11-04T09:40:13;20.50;;;10.67;;
21392;SDS011;10857;52.228;21.026;2022-11-04T09:45:28;20.73;;;11.23;;
21392;SDS011;10857;52.228;21.026;2022-11-04T09:47:57;18.40;;;10.93;;
21392;SDS011;10857;52.228;21.026;2022-11-04T09:50:34;23.00;;;11.57;;
21392;SDS011;10857;52.228;21.026;2022-11-04T09:53:18;22.40;;;11.17;;
21392;SDS011;10857;52.228;21.026;2022-11-04T09:55:51;19.20;;;11.13;;
21392;SDS011;10857;52.228;21.026;2022-11-04T09:58:22;23.20;;;11.57;;
21392;SDS011;10857;52.228;21.026;2022-11-04T10:00:56;23.60;;;11.60;;
21392;SDS011;10857;52.228;21.026;2022-11-04T10:12:25;21.40;;;11.70;;
21392;SDS011;10857;52.228;21.026;2022-11-04T10:20:54;23.73;;;12.03;;
21392;SDS011;10857;52.228;21.026;2022-11-04T10:23:45;25.00;;;12.00;;
21392;SDS011;10857;52.228;21.026;2022-11-04T10:26:53;23.97;;;12.60;;
21392;SDS011;10857;52.228;21.026;2022-11-04T10:29:36;22.13;;;12.13;;
21392;SDS011;10857;52.228;21.026;2022-11-04T10:32:14;21.87;;;11.57;;
21392;SDS011;10857;52.228;21.026;2022-11-04T10:34:53;25.17;;;11.40;;
21392;SDS011;10857;52.228;21.026;2022-11-04T10:37:24;23.25;;;12.75;;
21392;SDS011;10857;52.228;21.026;2022-11-04T10:39:52;21.93;;;11.87;;
21392;SDS011;10857;52.228;21.026;2022-11-04T10:42:41;23.37;;;11.70;;
21392;SDS011;10857;52.228;21.026;2022-11-04T10:45:09;23.53;;;11.87;;
21392;SDS011;10857;52.228;21.026;2022-11-04T10:53:08;22.57;;;12.03;;
21392;SDS011;10857;52.228;21.026;2022-11-04T10:55:44;22.23;;;11.73;;
21392;SDS011;10857;52.228;21.026;2022-11-04T10:58:36;21.63;;;11.77;;
21392;SDS011;10857;52.228;21.026;2022-11-04T11:01:25;25.17;;;11.67;;
21392;SDS011;10857;52.228;21.026;2022-11-04T11:04:05;22.53;;;11.40;;
21392;SDS011;10857;52.228;21.026;2022-11-04T11:06:34;20.93;;;11.27;;
21392;SDS011;10857;52.228;21.026;2022-11-04T11:11:41;17.48;;;11.07;;
21392;SDS011;10857;52.228;21.026;2022-11-04T11:14:17;24.57;;;11.33;;
21392;SDS011;10857;52.228;21.026;2022-11-04T11:22:27;20.67;;;10.70;;
21392;SDS011;10857;52.228;21.026;2022-11-04T11:30:27;22.17;;;10.65;;
21392;SDS011;10857;52.228;21.026;2022-11-04T11:32:58;22.27;;;11.02;;
21392;SDS011;10857;52.228;21.026;2022-11-04T11:35:35;22.52;;;11.00;;
21392;SDS011;10857;52.228;21.026;2022-11-04T11:38:14;22.48;;;10.43;;
21392;SDS011;10857;52.228;21.026;2022-11-04T11:40:49;20.90;;;10.50;;
21392;SDS011;10857;52.228;21.026;2022-11-04T11:43:44;18.23;;;9.85;;
21392;SDS011;10857;52.228;21.026;2022-11-04T11:48:54;17.95;;;10.13;;
21392;SDS011;10857;52.228;21.026;2022-11-04T11:51:46;19.02;;;10.38;;
21392;SDS011;10857;52.228;21.026;2022-11-04T11:57:01;21.48;;;9.93;;
21392;SDS011;10857;52.228;21.026;2022-11-04T11:59:45;15.85;;;9.93;;
21392;SDS011;10857;52.228;21.026;2022-11-04T12:05:15;17.23;;;9.32;;
21392;SDS011;10857;52.228;21.026;2022-11-04T12:08:14;16.30;;;9.82;;
21392;SDS011;10857;52.228;21.026;2022-11-04T12:11:27;17.75;;;9.73;;
21392;SDS011;10857;52.228;21.026;2022-11-04T12:14:09;19.65;;;10.00;;
21392;SDS011;10857;52.228;21.026;2022-11-04T12:16:51;15.20;;;9.68;;
21392;SDS011;10857;52.228;21.026;2022-11-04T12:25:14;16.77;;;9.52;;
21392;SDS011;10857;52.228;21.026;2022-11-04T12:31:03;18.08;;;9.75;;
21392;SDS011;10857;52.228;21.026;2022-11-04T12:39:13;18.77;;;10.30;;
21392;SDS011;10857;52.228;21.026;2022-11-04T12:44:57;19.67;;;9.32;;
21392;SDS011;10857;52.228;21.026;2022-11-04T12:47:42;17.73;;;9.13;;
21392;SDS011;10857;52.228;21.026;2022-11-04T12:53:15;16.55;;;8.88;;
21392;SDS011;10857;52.228;21.026;2022-11-04T12:58:40;16.50;;;9.27;;
21392;SDS011;10857;52.228;21.026;2022-11-04T13:06:59;18.75;;;9.85;;
21392;SDS011;10857;52.228;21.026;2022-11-04T13:09:37;19.55;;;8.90;;
21392;SDS011;10857;52.228;21.026;2022-11-04T13:12:16;15.57;;;9.13;;
21392;SDS011;10857;52.228;21.026;2022-11-04T13:14:53;17.83;;;9.20;;
21392;SDS011;10857;52.228;21.026;2022-11-04T13:17:23;18.00;;;9.18;;
21392;SDS011;10857;52.228;21.026;2022-11-04T13:19:59;14.65;;;9.65;;
21392;SDS011;10857;52.228;21.026;2022-11-04T13:22:52;18.25;;;8.57;;
21392;SDS011;10857;52.228;21.026;2022-11-04T13:25:49;17.75;;;9.32;;
21392;SDS011;10857;52.228;21.026;2022-11-04T13:28:17;15.80;;;9.20;;
21392;SDS011;10857;52.228;21.026;2022-11-04T13:33:28;14.02;;;8.68;;
21392;SDS011;10857;52.228;21.026;2022-11-04T13:35:58;17.20;;;9.65;;
21392;SDS011;10857;52.228;21.026;2022-11-04T13:41:55;20.73;;;9.68;;
21392;SDS011;10857;52.228;21.026;2022-11-04T13:44:48;16.67;;;9.57;;
21392;SDS011;10857;52.228;21.026;2022-11-04T13:47:22;17.52;;;9.23;;
21392;SDS011;10857;52.228;21.026;2022-11-04T13:50:01;16.67;;;9.53;;
21392;SDS011;10857;52.228;21.026;2022-11-04T13:52:29;17.27;;;9.32;;
21392;SDS011;10857;52.228;21.026;2022-11-04T13:54:59;17.98;;;8.90;;
21392;SDS011;10857;52.228;21.026;2022-11-04T13:57:34;15.95;;;9.32;;
21392;SDS011;10857;52.228;21.026;2022-11-04T14:00:27;15.65;;;9.55;;
21392;SDS011;10857;52.228;21.026;2022-11-04T14:06:03;19.45;;;9.20;;
21392;SDS011;10857;52.228;21.026;2022-11-04T14:08:33;18.70;;;9.05;;
21392;SDS011;10857;52.228;21.026;2022-11-04T14:11:02;15.85;;;9.10;;
21392;SDS011;10857;52.228;21.026;2022-11-04T14:18:44;19.45;;;9.68;;
21392;SDS011;10857;52.228;21.026;2022-11-04T14:21:16;17.85;;;8.82;;
21392;SDS011;10857;52.228;21.026;2022-11-04T14:23:51;15.63;;;8.53;;
21392;SDS011;10857;52.228;21.026;2022-11-04T14:26:21;14.77;;;9.30;;
21392;SDS011;10857;52.228;21.026;2022-11-04T14:29:06;14.70;;;8.90;;
21392;SDS011;10857;52.228;21.026;2022-11-04T14:31:42;19.03;;;9.80;;
21392;SDS011;10857;52.228;21.026;2022-11-04T14:34:22;20.13;;;9.80;;
21392;SDS011;10857;52.228;21.026;2022-11-04T14:37:05;19.77;;;9.90;;
21392;SDS011;10857;52.228;21.026;2022-11-04T14:39:41;18.57;;;9.57;;
21392;SDS011;10857;52.228;21.026;2022-11-04T14:42:12;16.83;;;9.67;;
21392;SDS011;10857;52.228;21.026;2022-11-04T14:44:43;18.13;;;10.23;;
21392;SDS011;10857;52.228;21.026;2022-11-04T14:47:16;15.33;;;9.60;;
21392;SDS011;10857;52.228;21.026;2022-11-04T14:49:48;21.87;;;9.90;;
21392;SDS011;10857;52.228;21.026;2022-11-04T14:54:45;19.47;;;9.60;;
21392;SDS011;10857;52.228;21.026;2022-11-04T14:57:14;19.20;;;10.00;;
21392;SDS011;10857;52.228;21.026;2022-11-04T14:59:42;19.63;;;10.00;;
21392;SDS011;10857;52.228;21.026;2022-11-04T15:02:11;19.00;;;10.07;;
21392;SDS011;10857;52.228;21.026;2022-11-04T15:04:55;22.50;;;9.90;;
21392;SDS011;10857;52.228;21.026;2022-11-04T15:07:34;19.30;;;9.80;;
21392;SDS011;10857;52.228;21.026;2022-11-04T15:10:17;21.07;;;10.37;;
21392;SDS011;10857;52.228;21.026;2022-11-04T15:12:47;22.37;;;10.80;;
21392;SDS011;10857;52.228;21.026;2022-11-04T15:15:31;19.23;;;10.43;;
21392;SDS011;10857;52.228;21.026;2022-11-04T15:18:03;19.17;;;10.80;;
21392;SDS011;10857;52.228;21.026;2022-11-04T15:21:08;22.63;;;10.50;;
21392;SDS011;10857;52.228;21.026;2022-11-04T15:23:30;20.60;;;11.13;;
21392;SDS011;10857;52.228;21.026;2022-11-04T15:26:02;22.07;;;11.77;;
21392;SDS011;10857;52.228;21.026;2022-11-04T15:28:34;19.70;;;10.83;;
21392;SDS011;10857;52.228;21.026;2022-11-04T15:33:40;25.50;;;11.13;;
21392;SDS011;10857;52.228;21.026;2022-11-04T15:36:19;23.93;;;11.00;;
21392;SDS011;10857;52.228;21.026;2022-11-04T15:38:57;24.23;;;11.70;;
21392;SDS011;10857;52.228;21.026;2022-11-04T15:41:26;19.53;;;11.43;;
21392;SDS011;10857;52.228;21.026;2022-11-04T15:44:17;19.93;;;11.17;;
21392;SDS011;10857;52.228;21.026;2022-11-04T15:46:49;23.67;;;13.00;;
21392;SDS011;10857;52.228;21.026;2022-11-04T15:49:25;23.03;;;12.00;;
21392;SDS011;10857;52.228;21.026;2022-11-04T15:51:55;20.40;;;12.40;;
21392;SDS011;10857;52.228;21.026;2022-11-04T20:49:44;22.60;;;13.13;;
21392;SDS011;10857;52.228;21.026;2022-11-04T20:52:28;23.20;;;13.70;;
21392;SDS011;10857;52.228;21.026;2022-11-04T20:54:55;24.33;;;12.97;;
21392;SDS011;10857;52.228;21.026;2022-11-04T20:57:22;24.30;;;13.33;;
21392;SDS011;10857;52.228;21.026;2022-11-04T20:59:49;24.57;;;13.67;;
21392;SDS011;10857;52.228;21.026;2022-11-04T21:02:16;26.03;;;13.17;;
21392;SDS011;10857;52.228;21.026;2022-11-04T21:04:43;24.20;;;13.07;;
21392;SDS011;10857;52.228;21.026;2022-11-04T21:07:09;25.07;;;13.77;;
21392;SDS011;10857;52.228;21.026;2022-11-04T21:09:37;23.20;;;13.03;;
21392;SDS011;10857;52.228;21.026;2022-11-04T21:12:04;31.43;;;13.93;;
21392;SDS011;10857;52.228;21.026;2022-11-04T21:14:31;22.43;;;13.60;;
21392;SDS011;10857;52.228;21.026;2022-11-04T21:17:00;23.73;;;14.23;;
21392;SDS011;10857;52.228;21.026;2022-11-04T21:19:28;23.70;;;13.40;;
21392;SDS011;10857;52.228;21.026;2022-11-04T21:21:55;25.53;;;13.87;;
21392;SDS011;10857;52.228;21.026;2022-11-04T21:24:22;25.23;;;14.13;;
21392;SDS011;10857;52.228;21.026;2022-11-04T21:26:49;24.37;;;14.33;;
21392;SDS011;10857;52.228;21.026;2022-11-04T21:29:17;25.93;;;14.10;;
21392;SDS011;10857;52.228;21.026;2022-11-04T21:31:45;22.83;;;13.83;;
21392;SDS011;10857;52.228;21.026;2022-11-04T21:34:13;21.97;;;13.70;;
21392;SDS011;10857;52.228;21.026;2022-11-04T21:36:40;21.50;;;13.57;;
21392;SDS011;10857;52.228;21.026;2022-11-04T21:39:07;26.90;;;14.17;;
21392;SDS011;10857;52.228;21.026;2022-11-04T21:41:36;24.73;;;13.90;;
21392;SDS011;10857;52.228;21.026;2022-11-04T21:44:04;27.47;;;14.73;;
21392;SDS011;10857;52.228;21.026;2022-11-04T21:46:33;26.50;;;14.30;;
21392;SDS011;10857;52.228;21.026;2022-11-04T21:49:01;23.50;;;13.93;;
21392;SDS011;10857;52.228;21.026;2022-11-04T21:51:29;24.30;;;13.80;;
21392;SDS011;10857;52.228;21.026;2022-11-04T21:53:57;27.07;;;14.57;;
21392;SDS011;10857;52.228;21.026;2022-11-04T21:56:28;29.47;;;15.13;;
